createdAt,value
2017-09-06T00:02:19.891Z,99.90
2017-09-06T00:04:48.174Z,99.90
2017-09-06T00:07:16.583Z,99.90
2017-09-06T00:09:44.981Z,99.90
2017-09-06T00:12:13.314Z,99.90
2017-09-06T00:14:41.614Z,99.90
2017-09-06T00:17:09.982Z,99.90
2017-09-06T00:19:38.373Z,99.90
2017-09-06T00:22:06.724Z,99.90
2017-09-06T00:24:35.027Z,99.90
2017-09-06T00:27:04.114Z,99.90
2017-09-06T00:29:32.401Z,99.90
2017-09-06T00:32:00.677Z,99.90
2017-09-06T00:34:29.148Z,99.90
2017-09-06T00:36:57.409Z,99.90
2017-09-06T00:39:25.789Z,99.90
2017-09-06T00:41:54.069Z,99.90
2017-09-06T00:44:22.469Z,99.90
2017-09-06T00:46:50.846Z,99.90
2017-09-06T00:49:19.249Z,99.90
2017-09-06T00:51:47.524Z,99.90
2017-09-06T00:54:15.868Z,99.90
2017-09-06T00:56:44.250Z,99.90
2017-09-06T00:59:12.635Z,99.90
2017-09-06T01:01:40.917Z,99.90
2017-09-06T01:04:09.301Z,99.90
2017-09-06T01:06:37.587Z,99.90
2017-09-06T01:09:05.877Z,99.90
2017-09-06T01:11:34.946Z,99.90
2017-09-06T01:14:03.221Z,99.90
2017-09-06T01:16:31.509Z,99.90
2017-09-06T01:18:59.892Z,99.90
2017-09-06T01:21:28.255Z,99.90
2017-09-06T01:23:56.548Z,99.90
2017-09-06T01:26:24.852Z,99.90
2017-09-06T01:28:53.133Z,99.90
2017-09-06T01:31:21.471Z,99.90
2017-09-06T01:33:49.750Z,99.90
2017-09-06T01:36:18.056Z,99.90
2017-09-06T01:38:47.106Z,99.90
2017-09-06T01:41:15.373Z,99.90
2017-09-06T01:43:43.680Z,99.90
2017-09-06T01:46:11.961Z,99.90
2017-09-06T01:48:40.329Z,99.90
2017-09-06T01:51:08.607Z,99.90
2017-09-06T01:53:36.903Z,99.90
2017-09-06T01:56:05.209Z,99.90
2017-09-06T01:58:34.348Z,99.90
2017-09-06T02:01:02.605Z,99.90
2017-09-06T02:03:31.013Z,99.90
2017-09-06T02:05:59.272Z,99.90
2017-09-06T02:08:27.576Z,99.90
2017-09-06T02:10:55.954Z,99.90
2017-09-06T02:13:24.216Z,99.90
2017-09-06T02:15:52.508Z,99.90
2017-09-06T02:18:20.780Z,99.90
2017-09-06T02:20:49.080Z,99.90
2017-09-06T02:23:17.439Z,99.90
2017-09-06T02:25:45.736Z,99.90
2017-09-06T02:28:14.093Z,99.90
2017-09-06T02:30:42.377Z,99.90
2017-09-06T02:33:10.846Z,99.90
2017-09-06T02:35:39.220Z,99.90
2017-09-06T02:38:07.621Z,99.90
2017-09-06T02:40:35.989Z,99.90
2017-09-06T02:43:04.288Z,99.90
2017-09-06T02:45:32.553Z,99.90
2017-09-06T02:48:00.941Z,99.90
2017-09-06T02:50:29.206Z,99.90
2017-09-06T02:52:57.567Z,99.90
2017-09-06T02:55:25.948Z,99.90
2017-09-06T02:57:54.330Z,99.90
2017-09-06T03:00:22.610Z,99.90
2017-09-06T03:02:50.915Z,99.90
2017-09-06T03:05:19.191Z,99.90
2017-09-06T03:07:47.477Z,99.90
2017-09-06T03:10:15.812Z,99.90
2017-09-06T03:12:44.211Z,99.90
2017-09-06T03:15:12.497Z,99.90
2017-09-06T03:17:40.853Z,99.90
2017-09-06T03:20:09.179Z,99.90
2017-09-06T03:22:37.510Z,99.90
2017-09-06T03:25:05.816Z,99.90
2017-09-06T03:27:34.174Z,99.90
2017-09-06T03:30:02.479Z,99.90
2017-09-06T03:32:31.516Z,99.90
2017-09-06T03:34:59.832Z,99.90
2017-09-06T03:37:28.199Z,99.90
2017-09-06T03:39:56.585Z,99.90
2017-09-06T03:42:24.861Z,99.90
2017-09-06T03:44:53.232Z,99.90
2017-09-06T03:47:21.546Z,99.90
2017-09-06T03:49:50.587Z,99.90
2017-09-06T03:52:18.988Z,99.90
2017-09-06T03:54:47.379Z,99.90
2017-09-06T03:57:16.461Z,99.90
2017-09-06T03:59:44.748Z,99.90
2017-09-06T04:02:13.062Z,99.90
2017-09-06T04:04:41.347Z,99.90
2017-09-06T04:07:09.671Z,99.90
2017-09-06T04:09:37.972Z,99.90
2017-09-06T04:12:06.247Z,99.90
2017-09-06T04:14:34.602Z,99.90
2017-09-06T04:17:02.991Z,99.90
2017-09-06T04:19:31.406Z,99.90
2017-09-06T04:22:00.443Z,99.90
2017-09-06T04:24:28.838Z,99.90
2017-09-06T04:26:57.119Z,99.90
2017-09-06T04:29:25.488Z,99.90
2017-09-06T04:31:53.745Z,99.90
2017-09-06T04:34:22.211Z,99.90
2017-09-06T04:36:50.491Z,99.90
2017-09-06T04:39:18.870Z,99.90
2017-09-06T04:41:47.190Z,99.90
2017-09-06T04:44:15.457Z,99.90
2017-09-06T04:46:43.768Z,99.90
2017-09-06T04:49:12.060Z,99.90
2017-09-06T04:51:40.435Z,99.90
2017-09-06T04:54:08.697Z,99.90
2017-09-06T04:56:37.008Z,99.90
2017-09-06T04:59:05.313Z,99.90
2017-09-06T05:01:33.607Z,99.90
2017-09-06T05:04:01.945Z,99.90
2017-09-06T05:06:30.225Z,99.90
2017-09-06T05:08:58.531Z,99.90
2017-09-06T05:11:26.845Z,99.90
2017-09-06T05:13:55.913Z,99.90
2017-09-06T05:16:24.244Z,99.90
2017-09-06T05:18:52.586Z,99.90
2017-09-06T05:21:20.941Z,99.90
2017-09-06T05:23:49.229Z,99.90
2017-09-06T05:26:17.506Z,99.90
2017-09-06T05:28:45.874Z,99.90
2017-09-06T05:31:14.243Z,99.90
2017-09-06T05:33:42.617Z,99.90
2017-09-06T05:36:11.027Z,99.90
2017-09-06T05:38:39.326Z,99.90
2017-09-06T05:41:07.684Z,99.90
2017-09-06T05:43:36.854Z,99.90
2017-09-06T05:46:05.154Z,99.90
2017-09-06T05:48:33.429Z,99.90
2017-09-06T05:51:01.805Z,99.90
2017-09-06T05:53:30.186Z,99.90
2017-09-06T05:55:58.598Z,99.90
2017-09-06T05:58:26.927Z,99.90
2017-09-06T06:00:55.242Z,99.90
2017-09-06T06:03:23.583Z,99.90
2017-09-06T06:05:51.858Z,99.90
2017-09-06T06:08:20.229Z,99.90
2017-09-06T06:10:48.488Z,99.90
2017-09-06T06:13:16.785Z,99.90
2017-09-06T06:15:45.067Z,99.90
2017-09-06T06:18:13.364Z,99.90
2017-09-06T06:20:41.812Z,99.90
2017-09-06T06:23:10.087Z,99.90
2017-09-06T06:25:38.366Z,99.90
2017-09-06T06:28:06.645Z,99.90
2017-09-06T06:30:34.931Z,99.90
2017-09-06T06:33:03.315Z,99.90
2017-09-06T06:35:31.693Z,99.90
2017-09-06T06:38:00.056Z,99.90
2017-09-06T06:40:28.371Z,99.90
2017-09-06T06:42:56.645Z,99.90
2017-09-06T06:45:25.092Z,99.90
2017-09-06T06:47:53.388Z,99.90
2017-09-06T06:50:21.793Z,99.90
2017-09-06T06:52:50.087Z,99.90
2017-09-06T06:55:18.437Z,99.90
2017-09-06T06:57:46.800Z,99.90
2017-09-06T07:00:15.086Z,99.90
2017-09-06T07:02:43.478Z,99.90
2017-09-06T07:05:11.748Z,99.90
2017-09-06T07:07:40.105Z,99.90
2017-09-06T07:10:08.380Z,99.90
2017-09-06T07:12:36.674Z,99.90
2017-09-06T07:15:04.967Z,99.90
2017-09-06T07:17:33.651Z,99.90
2017-09-06T07:20:02.021Z,99.90
2017-09-06T07:22:30.305Z,99.90
2017-09-06T07:24:58.682Z,99.90
2017-09-06T07:27:27.061Z,99.90
2017-09-06T07:29:55.429Z,99.90
2017-09-06T07:32:23.825Z,99.90
2017-09-06T07:34:52.093Z,99.90
2017-09-06T07:37:20.382Z,99.90
2017-09-06T07:39:48.648Z,99.90
2017-09-06T07:42:16.937Z,99.90
2017-09-06T07:44:45.273Z,99.90
2017-09-06T07:47:13.566Z,99.90
2017-09-06T07:49:41.843Z,99.90
2017-09-06T07:52:10.147Z,99.90
2017-09-06T07:54:38.508Z,99.90
2017-09-06T07:57:06.877Z,99.90
2017-09-06T07:59:35.277Z,99.90
2017-09-06T08:02:03.554Z,99.90
2017-09-06T08:04:31.938Z,99.90
2017-09-06T08:07:06.151Z,99.90
2017-09-06T08:09:34.535Z,99.90
2017-09-06T08:12:02.805Z,99.90
2017-09-06T08:14:31.193Z,99.90
2017-09-06T08:16:59.567Z,99.90
2017-09-06T08:19:27.846Z,99.90
2017-09-06T08:21:56.141Z,99.90
2017-09-06T08:24:25.194Z,99.90
2017-09-06T08:26:53.685Z,99.90
2017-09-06T08:29:21.983Z,99.90
2017-09-06T08:31:50.359Z,99.90
2017-09-06T08:34:18.720Z,99.90
2017-09-06T08:36:47.107Z,99.90
2017-09-06T08:39:15.392Z,99.90
2017-09-06T08:41:43.695Z,99.90
2017-09-06T08:44:12.055Z,99.90
2017-09-06T08:46:40.333Z,99.90
2017-09-06T08:49:08.637Z,99.90
2017-09-06T08:51:36.919Z,99.90
2017-09-06T08:54:05.255Z,99.90
2017-09-06T08:56:33.551Z,99.90
2017-09-06T08:59:01.915Z,99.90
2017-09-06T09:01:30.214Z,99.90
2017-09-06T09:03:58.501Z,99.90
2017-09-06T09:06:26.791Z,99.90
2017-09-06T09:08:55.108Z,99.90
2017-09-06T09:11:23.479Z,99.90
2017-09-06T09:13:51.873Z,99.90
2017-09-06T09:16:20.171Z,99.90
2017-09-06T09:18:48.454Z,99.90
2017-09-06T09:21:16.751Z,99.90
2017-09-06T09:23:45.040Z,99.90
2017-09-06T09:26:13.335Z,99.90
2017-09-06T09:28:41.595Z,99.90
2017-09-06T09:31:09.898Z,99.90
2017-09-06T09:33:38.192Z,99.90
2017-09-06T09:36:07.270Z,99.90
2017-09-06T09:38:35.561Z,99.90
2017-09-06T09:41:03.849Z,99.90
2017-09-06T09:43:32.144Z,99.90
2017-09-06T09:46:00.422Z,99.90
2017-09-06T09:48:28.731Z,99.90
2017-09-06T09:50:57.074Z,99.90
2017-09-06T09:53:25.375Z,99.90
2017-09-06T09:55:53.714Z,99.90
2017-09-06T09:58:22.000Z,99.90
2017-09-06T10:00:50.273Z,99.90
2017-09-06T10:03:18.634Z,99.90
2017-09-06T10:05:47.018Z,99.90
2017-09-06T10:08:15.296Z,99.90
2017-09-06T10:10:43.591Z,99.90
2017-09-06T10:13:12.049Z,99.90
2017-09-06T10:15:40.456Z,99.90
2017-09-06T10:18:08.814Z,99.90
2017-09-06T10:20:37.119Z,99.90
2017-09-06T10:23:05.471Z,99.90
2017-09-06T10:25:33.780Z,99.90
2017-09-06T10:28:02.061Z,99.90
2017-09-06T10:30:30.339Z,99.90
2017-09-06T10:32:58.691Z,99.90
2017-09-06T10:35:27.070Z,99.90
2017-09-06T10:37:55.391Z,99.90
2017-09-06T10:40:23.649Z,99.90
2017-09-06T10:42:52.000Z,99.90
2017-09-06T10:45:20.273Z,99.90
2017-09-06T10:47:48.659Z,99.90
2017-09-06T10:50:16.947Z,99.90
2017-09-06T10:52:45.260Z,99.90
2017-09-06T10:55:13.551Z,99.90
2017-09-06T10:57:41.834Z,99.90
2017-09-06T11:00:10.292Z,99.90
2017-09-06T11:02:38.579Z,99.90
2017-09-06T11:05:06.880Z,99.90
2017-09-06T11:07:35.182Z,99.90
2017-09-06T11:10:03.548Z,99.90
2017-09-06T11:12:31.826Z,99.90
2017-09-06T11:15:00.113Z,99.90
2017-09-06T11:17:28.389Z,99.90
2017-09-06T11:19:56.773Z,99.90
2017-09-06T11:22:25.119Z,99.90
2017-09-06T11:24:53.423Z,99.90
2017-09-06T11:27:21.702Z,99.90
2017-09-06T11:29:49.948Z,99.90
2017-09-06T11:32:18.252Z,99.90
2017-09-06T11:34:46.535Z,99.90
2017-09-06T11:37:15.028Z,99.90
2017-09-06T11:39:43.381Z,99.90
2017-09-06T11:42:11.667Z,99.90
2017-09-06T11:44:39.947Z,99.90
2017-09-06T11:47:08.318Z,99.90
2017-09-06T11:49:36.563Z,99.90
2017-09-06T11:52:04.904Z,99.90
2017-09-06T11:54:33.351Z,99.90
2017-09-06T11:57:01.621Z,99.90
2017-09-06T11:59:29.908Z,99.90
2017-09-06T12:01:58.191Z,99.90
2017-09-06T12:04:26.473Z,99.90
2017-09-06T12:06:54.734Z,99.90
2017-09-06T12:09:23.021Z,99.90
2017-09-06T12:11:51.297Z,99.90
2017-09-06T12:14:19.599Z,99.90
2017-09-06T12:16:47.945Z,99.90
2017-09-06T12:19:16.246Z,99.90
2017-09-06T12:21:44.515Z,99.90
2017-09-06T12:24:12.881Z,99.90
2017-09-06T12:26:41.261Z,99.90
2017-09-06T12:29:09.535Z,99.90
2017-09-06T12:31:37.825Z,99.90
2017-09-06T12:34:06.204Z,99.90
2017-09-06T12:36:34.582Z,99.90
2017-09-06T12:39:02.860Z,99.90
2017-09-06T12:41:31.233Z,99.90
2017-09-06T12:43:59.622Z,99.90
2017-09-06T12:46:27.874Z,99.90
2017-09-06T12:48:56.277Z,99.90
2017-09-06T12:51:24.653Z,99.90
2017-09-06T12:53:52.953Z,99.90
2017-09-06T12:56:21.295Z,99.90
2017-09-06T12:58:49.580Z,99.90
2017-09-06T13:01:17.863Z,99.90
2017-09-06T13:03:46.331Z,99.90
2017-09-06T13:06:14.787Z,99.90
2017-09-06T13:08:43.059Z,99.90
2017-09-06T13:11:11.367Z,99.10
2017-09-06T13:13:39.657Z,97.80
2017-09-06T13:16:07.923Z,97.40
2017-09-06T13:18:36.238Z,96.20
2017-09-06T13:21:04.678Z,93.80
2017-09-06T13:23:32.975Z,93.40
2017-09-06T13:26:01.348Z,91.40
2017-09-06T13:28:29.630Z,89.70
2017-09-06T13:30:57.902Z,88.00
2017-09-06T13:33:26.175Z,89.30
2017-09-06T13:35:54.451Z,91.00
2017-09-06T13:38:22.825Z,91.30
2017-09-06T13:40:51.105Z,92.10
2017-09-06T13:43:19.472Z,93.20
2017-09-06T13:45:47.748Z,93.80
2017-09-06T13:48:16.150Z,94.30
2017-09-06T13:50:44.391Z,95.20
2017-09-06T13:53:12.683Z,96.30
2017-09-06T13:55:40.969Z,97.80
2017-09-06T13:58:09.343Z,98.90
2017-09-06T14:00:37.609Z,99.80
2017-09-06T14:03:05.882Z,99.90
2017-09-06T14:05:34.178Z,99.90
2017-09-06T14:08:02.573Z,99.90
2017-09-06T14:10:30.833Z,99.90
2017-09-06T14:12:59.110Z,99.90
2017-09-06T14:15:27.384Z,99.90
2017-09-06T14:17:55.701Z,99.90
2017-09-06T14:20:24.732Z,99.90
2017-09-06T14:22:53.041Z,99.90
2017-09-06T14:25:21.323Z,99.90
2017-09-06T14:27:49.591Z,99.90
2017-09-06T14:30:17.864Z,99.90
2017-09-06T14:32:46.162Z,99.90
2017-09-06T14:35:14.439Z,99.90
2017-09-06T14:37:42.712Z,99.90
2017-09-06T14:40:10.986Z,99.90
2017-09-06T14:42:39.254Z,99.90
2017-09-06T14:45:07.548Z,99.90
2017-09-06T14:47:35.933Z,99.90
2017-09-06T14:50:04.198Z,99.90
2017-09-06T14:52:32.566Z,99.90
2017-09-06T14:55:00.836Z,99.90
2017-09-06T14:57:29.128Z,99.90
2017-09-06T14:59:57.419Z,99.90
2017-09-06T15:02:25.685Z,99.90
2017-09-06T15:04:54.061Z,99.90
2017-09-06T15:07:22.334Z,99.90
2017-09-06T15:09:51.768Z,99.90
2017-09-06T15:12:20.111Z,99.90
2017-09-06T15:14:48.395Z,99.90
2017-09-06T15:17:16.710Z,99.90
2017-09-06T15:19:45.004Z,99.90
2017-09-06T15:22:13.287Z,99.90
2017-09-06T15:24:41.627Z,99.90
2017-09-06T15:27:09.996Z,99.90
2017-09-06T15:29:38.377Z,99.90
2017-09-06T15:32:06.630Z,99.90
2017-09-06T15:34:34.906Z,99.90
2017-09-06T15:37:03.202Z,99.90
2017-09-06T15:39:31.551Z,99.90
2017-09-06T15:41:59.934Z,99.90
2017-09-06T15:44:28.429Z,99.90
2017-09-06T15:46:56.919Z,99.90
2017-09-06T15:49:25.287Z,99.90
2017-09-06T15:51:53.549Z,99.90
2017-09-06T15:54:21.834Z,99.90
2017-09-06T15:56:50.202Z,99.90
2017-09-06T15:59:18.576Z,99.90
2017-09-06T16:01:46.862Z,99.90
2017-09-06T16:04:15.234Z,99.90
2017-09-06T16:06:43.497Z,99.90
2017-09-06T16:09:11.776Z,99.90
2017-09-06T16:11:40.047Z,99.90
2017-09-06T16:14:08.358Z,99.90
2017-09-06T16:16:36.626Z,99.90
2017-09-06T16:19:05.027Z,99.90
2017-09-06T16:21:33.287Z,99.90
2017-09-06T16:24:01.566Z,99.90
2017-09-06T16:26:29.841Z,99.90
2017-09-06T16:28:58.097Z,99.90
2017-09-06T16:31:26.401Z,99.90
2017-09-06T16:33:54.781Z,99.90
2017-09-06T16:36:23.058Z,99.90
2017-09-06T16:38:51.330Z,99.90
2017-09-06T16:41:19.656Z,99.90
2017-09-06T16:43:47.933Z,99.90
2017-09-06T16:46:16.283Z,99.90
2017-09-06T16:48:44.546Z,99.90
2017-09-06T16:51:12.826Z,99.90
2017-09-06T16:53:41.103Z,99.90
2017-09-06T16:56:09.499Z,99.90
2017-09-06T16:58:37.864Z,99.90
2017-09-06T17:01:06.139Z,99.90
2017-09-06T17:03:34.404Z,99.90
2017-09-06T17:06:02.740Z,99.90
2017-09-06T17:08:31.000Z,99.90
2017-09-06T17:10:59.367Z,99.90
2017-09-06T17:13:28.423Z,99.90
2017-09-06T17:15:56.762Z,99.90
2017-09-06T17:18:25.797Z,99.90
2017-09-06T17:20:54.085Z,99.90
2017-09-06T17:23:22.349Z,99.90
2017-09-06T17:25:50.623Z,99.90
2017-09-06T17:28:18.880Z,99.90
2017-09-06T17:30:47.233Z,99.90
2017-09-06T17:33:15.529Z,99.90
2017-09-06T17:35:43.891Z,99.90
2017-09-06T17:38:14.744Z,99.90
2017-09-06T17:40:43.109Z,99.90
2017-09-06T17:43:11.475Z,99.90
2017-09-06T17:45:39.883Z,99.90
2017-09-06T17:48:08.258Z,99.90
2017-09-06T17:50:37.338Z,99.90
2017-09-06T17:53:05.621Z,99.90
2017-09-06T17:55:33.985Z,99.90
2017-09-06T17:58:02.357Z,99.90
2017-09-06T18:00:30.647Z,99.90
2017-09-06T18:02:59.006Z,99.90
2017-09-06T18:05:27.405Z,99.90
2017-09-06T18:07:55.685Z,99.90
2017-09-06T18:10:23.999Z,99.90
2017-09-06T18:12:52.345Z,99.90
2017-09-06T18:15:20.702Z,99.90
2017-09-06T18:17:49.094Z,99.90
2017-09-06T18:20:17.360Z,99.90
2017-09-06T18:22:45.657Z,99.90
2017-09-06T18:25:13.911Z,99.90
2017-09-06T18:27:43.026Z,99.90
2017-09-06T18:30:11.388Z,99.90
2017-09-06T18:32:39.683Z,99.90
2017-09-06T18:35:07.964Z,99.90
2017-09-06T18:37:36.356Z,99.90
2017-09-06T18:40:04.599Z,99.90
2017-09-06T18:42:32.889Z,99.90
2017-09-06T18:45:01.940Z,99.90
2017-09-06T18:47:30.214Z,99.90
2017-09-06T18:49:58.506Z,99.90
2017-09-06T18:52:27.631Z,99.90
2017-09-06T18:54:55.909Z,99.90
2017-09-06T18:57:25.196Z,99.90
2017-09-06T18:59:53.527Z,99.90
2017-09-06T19:02:23.438Z,99.90
2017-09-06T19:04:51.760Z,99.90
2017-09-06T19:07:20.046Z,99.90
2017-09-06T19:09:48.305Z,99.90
2017-09-06T19:12:17.477Z,99.90
2017-09-06T19:14:45.756Z,99.90
2017-09-06T19:17:14.039Z,99.90
2017-09-06T19:19:42.365Z,99.90
2017-09-06T19:22:11.494Z,99.90
2017-09-06T19:24:40.525Z,99.90
2017-09-06T19:27:08.810Z,99.90
2017-09-06T19:29:37.106Z,99.90
2017-09-06T19:32:05.395Z,99.90
2017-09-06T19:34:34.134Z,99.90
2017-09-06T19:37:02.427Z,99.90
2017-09-06T19:39:30.707Z,99.90
2017-09-06T19:41:58.996Z,99.90
2017-09-06T19:44:27.249Z,99.90
2017-09-06T19:46:55.526Z,99.90
2017-09-06T19:49:24.395Z,99.90
2017-09-06T19:54:27.429Z,99.90
2017-09-06T19:56:55.747Z,99.90
2017-09-06T19:59:24.047Z,99.90
2017-09-06T20:01:52.375Z,99.90
2017-09-06T20:04:20.643Z,99.90
2017-09-06T20:06:48.935Z,99.90
2017-09-06T20:09:17.240Z,99.90
2017-09-06T20:11:45.655Z,99.90
2017-09-06T20:14:13.984Z,99.90
2017-09-06T20:16:42.274Z,99.90
2017-09-06T20:19:10.553Z,99.90
2017-09-06T20:21:38.813Z,99.90
2017-09-06T20:24:07.098Z,99.90
2017-09-06T20:26:35.456Z,99.90
2017-09-06T20:29:03.744Z,99.90
2017-09-06T20:31:32.117Z,99.90
2017-09-06T20:34:00.498Z,99.90
2017-09-06T20:36:28.780Z,99.90
2017-09-06T20:38:57.063Z,99.90
2017-09-06T20:41:25.329Z,99.90
2017-09-06T20:43:53.602Z,99.90
2017-09-06T20:46:21.883Z,99.90
2017-09-06T20:48:50.170Z,99.90
2017-09-06T20:51:18.416Z,99.90
2017-09-06T20:53:46.719Z,99.90
2017-09-06T20:56:15.086Z,99.90
2017-09-06T20:58:43.373Z,99.90
2017-09-06T21:01:11.653Z,99.90
2017-09-06T21:03:39.924Z,99.90
2017-09-06T21:06:08.202Z,99.90
2017-09-06T21:08:36.497Z,99.90
2017-09-06T21:11:04.751Z,99.90
2017-09-06T21:13:33.134Z,99.90
2017-09-06T21:16:01.415Z,99.90
2017-09-06T21:18:29.740Z,99.90
2017-09-06T21:20:57.994Z,99.90
2017-09-06T21:23:26.261Z,99.90
2017-09-06T21:25:54.612Z,99.90
2017-09-06T21:28:22.897Z,99.90
2017-09-06T21:30:51.343Z,99.90
2017-09-06T21:33:19.655Z,99.90
2017-09-06T21:35:48.033Z,99.90
2017-09-06T21:38:16.300Z,99.90
2017-09-06T21:40:44.688Z,99.90
2017-09-06T21:43:12.947Z,99.90
2017-09-06T21:45:41.245Z,99.90
2017-09-06T21:48:09.523Z,99.90
2017-09-06T21:50:37.820Z,99.90
2017-09-06T21:53:06.098Z,99.90
2017-09-06T21:55:34.351Z,99.90
2017-09-06T21:58:02.641Z,99.90
2017-09-06T22:00:31.008Z,99.90
2017-09-06T22:02:59.321Z,99.90
2017-09-06T22:05:27.579Z,99.90
2017-09-06T22:07:56.231Z,99.90
2017-09-06T22:10:24.480Z,99.90
2017-09-06T22:12:52.761Z,99.90
2017-09-06T22:15:21.033Z,99.90
2017-09-06T22:17:49.355Z,99.90
2017-09-06T22:20:18.389Z,99.90
2017-09-06T22:22:47.402Z,99.90
2017-09-06T22:25:15.685Z,99.90
2017-09-06T22:27:43.956Z,99.90
2017-09-06T22:30:46.497Z,99.90
2017-09-06T22:33:15.561Z,99.90
2017-09-06T22:35:43.838Z,99.90
2017-09-06T22:38:12.126Z,99.90
2017-09-06T22:40:40.437Z,99.90
2017-09-06T22:43:09.489Z,99.90
2017-09-06T22:45:37.760Z,99.90
2017-09-06T22:48:06.030Z,99.90
2017-09-06T22:50:34.423Z,99.90
2017-09-06T22:53:02.704Z,99.90
2017-09-06T22:55:30.967Z,99.90
2017-09-06T22:57:59.371Z,99.90
2017-09-06T23:00:31.481Z,99.90
2017-09-06T23:02:59.785Z,99.90
2017-09-06T23:05:28.039Z,99.90
2017-09-06T23:07:56.316Z,99.90
2017-09-06T23:10:24.628Z,99.90
2017-09-06T23:12:52.903Z,99.90
2017-09-06T23:15:21.179Z,99.90
2017-09-06T23:17:49.462Z,99.90
2017-09-06T23:20:17.741Z,99.90
2017-09-06T23:22:46.046Z,99.90
2017-09-06T23:25:15.101Z,99.90
2017-09-06T23:27:43.399Z,99.90
2017-09-06T23:30:11.683Z,99.90
2017-09-06T23:32:40.048Z,99.90
2017-09-06T23:35:08.338Z,99.90
2017-09-06T23:37:36.721Z,99.90
2017-09-06T23:40:05.777Z,99.90
2017-09-06T23:42:34.073Z,99.90
2017-09-06T23:45:02.366Z,99.90
2017-09-06T23:47:30.653Z,99.90
2017-09-06T23:49:59.007Z,99.90
2017-09-06T23:52:27.382Z,99.90
2017-09-06T23:54:55.649Z,99.90
2017-09-06T23:57:23.934Z,99.90
2017-09-06T23:59:52.209Z,99.90
